createdAt,value
2023-01-23T00:00:47.292Z,9.63
2023-01-23T00:03:13.642Z,9.10
2023-01-23T00:05:39.978Z,9.73
2023-01-23T00:08:06.288Z,10.88
2023-01-23T00:10:32.607Z,10.35
2023-01-23T00:12:58.997Z,13.07
2023-01-23T00:15:25.405Z,11.93
2023-01-23T00:17:52.106Z,11.25
2023-01-23T00:20:18.852Z,11.70
2023-01-23T00:22:45.374Z,11.32
2023-01-23T00:25:11.686Z,11.40
2023-01-23T00:27:38.105Z,11.45
2023-01-23T00:30:05.187Z,10.38
2023-01-23T00:32:31.587Z,10.70
2023-01-23T00:34:57.903Z,9.93
2023-01-23T00:37:24.201Z,9.65
2023-01-23T00:39:50.862Z,10.50
2023-01-23T00:42:17.700Z,11.90
2023-01-23T00:44:44.021Z,10.75
2023-01-23T00:47:10.421Z,10.70
2023-01-23T00:49:36.793Z,10.73
2023-01-23T00:52:04.775Z,10.82
2023-01-23T00:54:31.132Z,9.85
2023-01-23T00:56:57.797Z,11.98
2023-01-23T00:59:24.296Z,9.52
2023-01-23T01:01:50.893Z,9.82
2023-01-23T01:04:17.241Z,10.15
2023-01-23T01:06:43.593Z,10.57
2023-01-23T01:09:09.877Z,10.30
2023-01-23T01:11:37.437Z,10.30
2023-01-23T01:14:04.527Z,10.68
2023-01-23T01:16:31.049Z,9.50
2023-01-23T01:18:58.437Z,11.00
2023-01-23T01:21:24.860Z,10.55
2023-01-23T01:23:51.231Z,10.27
2023-01-23T01:26:18.303Z,11.23
2023-01-23T01:28:44.664Z,10.63
2023-01-23T01:31:13.831Z,11.45
2023-01-23T01:33:41.653Z,9.70
2023-01-23T01:36:10.484Z,10.85
2023-01-23T01:38:36.941Z,9.73
2023-01-23T01:41:06.436Z,10.73
2023-01-23T01:43:34.321Z,11.68
2023-01-23T01:46:10.273Z,11.05
2023-01-23T01:48:42.486Z,10.63
2023-01-23T01:51:32.539Z,10.98
2023-01-23T01:54:16.780Z,10.93
2023-01-23T01:56:58.225Z,10.68
2023-01-23T01:59:27.029Z,10.05
2023-01-23T02:01:58.221Z,11.30
2023-01-23T02:06:52.637Z,10.90
2023-01-23T02:09:25.801Z,11.45
2023-01-23T02:11:52.793Z,12.48
2023-01-23T02:14:20.387Z,11.80
2023-01-23T02:16:51.868Z,10.93
2023-01-23T02:19:45.125Z,12.27
2023-01-23T02:22:45.409Z,12.50
2023-01-23T02:25:40.010Z,10.80
2023-01-23T02:28:07.088Z,12.05
2023-01-23T02:30:39.871Z,11.35
2023-01-23T02:33:12.208Z,13.00
2023-01-23T02:35:39.075Z,11.93
2023-01-23T02:38:09.346Z,12.80
2023-01-23T02:40:39.828Z,13.65
2023-01-23T02:43:15.639Z,13.52
2023-01-23T02:45:48.628Z,14.70
2023-01-23T02:48:15.763Z,15.48
2023-01-23T02:50:46.316Z,13.18
2023-01-23T02:53:13.362Z,12.15
2023-01-23T02:55:43.145Z,12.75
2023-01-23T02:58:28.825Z,12.77
2023-01-23T03:00:55.379Z,13.02
2023-01-23T03:03:22.759Z,13.20
2023-01-23T03:05:50.110Z,12.48
2023-01-23T03:08:16.958Z,10.95
2023-01-23T03:10:43.834Z,11.75
2023-01-23T03:13:11.967Z,15.13
2023-01-23T03:15:39.116Z,12.43
2023-01-23T03:18:05.532Z,11.27
2023-01-23T03:20:39.233Z,10.82
2023-01-23T03:23:05.632Z,11.68
2023-01-23T03:25:32.084Z,11.98
2023-01-23T03:27:58.559Z,11.35
2023-01-23T03:30:25.657Z,12.18
2023-01-23T03:32:52.979Z,11.55
2023-01-23T03:35:20.292Z,10.70
2023-01-23T03:37:49.496Z,11.98
2023-01-23T03:40:40.437Z,11.02
2023-01-23T03:43:07.136Z,11.05
2023-01-23T03:45:35.669Z,10.70
2023-01-23T03:48:02.385Z,10.95
2023-01-23T03:50:30.013Z,10.90
2023-01-23T03:52:57.047Z,11.68
2023-01-23T03:55:23.434Z,10.77
2023-01-23T03:57:49.835Z,12.15
2023-01-23T04:00:17.870Z,12.07
2023-01-23T04:02:50.674Z,11.18
2023-01-23T04:05:17.467Z,12.75
2023-01-23T04:07:43.771Z,11.43
2023-01-23T04:10:12.932Z,11.73
2023-01-23T04:12:42.812Z,11.63
2023-01-23T04:15:10.533Z,13.48
2023-01-23T04:17:36.963Z,11.80
2023-01-23T04:20:03.997Z,11.20
2023-01-23T04:22:30.996Z,11.73
2023-01-23T04:24:57.322Z,12.15
2023-01-23T04:27:23.880Z,12.15
2023-01-23T04:29:52.236Z,11.15
2023-01-23T04:32:18.613Z,12.27
2023-01-23T04:34:46.740Z,12.15
2023-01-23T04:37:14.157Z,11.65
2023-01-23T04:39:40.633Z,11.95
2023-01-23T04:42:07.453Z,12.15
2023-01-23T04:44:52.131Z,10.88
2023-01-23T04:47:30.277Z,11.77
2023-01-23T04:49:57.791Z,12.70
2023-01-23T04:52:24.092Z,12.07
2023-01-23T04:54:56.812Z,11.88
2023-01-23T04:57:23.529Z,11.15
2023-01-23T04:59:56.228Z,12.43
2023-01-23T05:02:22.961Z,11.82
2023-01-23T05:04:49.520Z,11.75
2023-01-23T05:07:15.856Z,12.32
2023-01-23T05:09:54.187Z,11.23
2023-01-23T05:12:21.652Z,11.43
2023-01-23T05:14:47.953Z,11.02
2023-01-23T05:17:14.277Z,10.95
2023-01-23T05:19:46.009Z,10.68
2023-01-23T05:22:12.639Z,11.30
2023-01-23T05:24:39.001Z,10.25
2023-01-23T05:27:05.524Z,10.25
2023-01-23T05:29:36.109Z,11.38
2023-01-23T05:32:09.382Z,11.73
2023-01-23T05:34:38.381Z,11.60
2023-01-23T05:37:14.900Z,10.85
2023-01-23T05:39:45.275Z,11.73
2023-01-23T05:42:11.596Z,10.75
2023-01-23T05:44:49.728Z,12.68
2023-01-23T05:47:29.909Z,12.50
2023-01-23T05:49:57.274Z,11.85
2023-01-23T05:52:28.215Z,8.73
2023-01-23T05:54:54.884Z,11.48
2023-01-23T05:57:22.270Z,10.75
2023-01-23T06:00:08.440Z,11.25
2023-01-23T06:02:53.208Z,10.85
2023-01-23T06:05:45.713Z,12.20
2023-01-23T06:08:17.274Z,11.52
2023-01-23T06:10:43.736Z,10.35
2023-01-23T06:13:10.892Z,10.07
2023-01-23T06:15:39.952Z,9.30
2023-01-23T06:18:10.340Z,10.13
2023-01-23T06:20:36.685Z,10.07
2023-01-23T06:23:03.554Z,9.98
2023-01-23T06:25:32.061Z,10.27
2023-01-23T06:28:01.127Z,11.07
2023-01-23T06:30:30.403Z,10.70
2023-01-23T06:32:56.946Z,10.27
2023-01-23T06:35:31.538Z,9.52
2023-01-23T06:37:57.956Z,10.18
2023-01-23T06:40:25.100Z,11.40
2023-01-23T06:43:14.189Z,10.90
2023-01-23T06:45:45.134Z,11.88
2023-01-23T06:48:12.080Z,12.57
2023-01-23T06:50:41.325Z,13.27
2023-01-23T06:53:09.333Z,12.35
2023-01-23T06:55:36.978Z,11.85
2023-01-23T06:58:04.342Z,9.88
2023-01-23T07:00:31.080Z,10.98
2023-01-23T07:03:03.516Z,11.35
2023-01-23T07:05:30.906Z,11.38
2023-01-23T07:07:57.475Z,10.63
2023-01-23T07:10:24.200Z,11.25
2023-01-23T07:12:50.971Z,12.60
2023-01-23T07:15:17.424Z,10.07
2023-01-23T07:17:43.968Z,11.43
2023-01-23T07:20:11.068Z,11.73
2023-01-23T07:22:43.413Z,12.00
2023-01-23T07:25:10.100Z,14.65
2023-01-23T07:27:36.518Z,11.02
2023-01-23T07:30:03.146Z,10.55
2023-01-23T07:32:29.444Z,11.98
2023-01-23T07:34:55.835Z,14.10
2023-01-23T07:37:22.159Z,14.35
2023-01-23T07:39:49.906Z,11.13
2023-01-23T07:42:16.398Z,11.30
2023-01-23T07:44:42.720Z,10.90
2023-01-23T07:47:09.660Z,10.70
2023-01-23T07:49:35.963Z,9.93
2023-01-23T07:52:02.521Z,10.48
2023-01-23T07:54:28.844Z,12.10
2023-01-23T07:56:55.967Z,10.48
2023-01-23T07:59:22.255Z,11.23
2023-01-23T08:01:50.763Z,10.88
2023-01-23T08:04:17.114Z,11.50
2023-01-23T08:06:43.642Z,11.07
2023-01-23T08:09:10.020Z,14.07
2023-01-23T08:11:36.434Z,13.13
2023-01-23T08:14:02.835Z,13.27
2023-01-23T08:16:29.276Z,17.08
2023-01-23T08:18:55.721Z,17.33
2023-01-23T08:21:22.274Z,15.70
2023-01-23T08:23:48.597Z,16.77
2023-01-23T08:26:17.037Z,17.08
2023-01-23T08:28:45.458Z,17.27
2023-01-23T08:31:13.286Z,16.60
2023-01-23T08:33:39.854Z,18.92
2023-01-23T08:36:10.161Z,17.70
2023-01-23T08:41:03.909Z,13.68
2023-01-23T08:43:30.541Z,14.55
2023-01-23T08:45:58.386Z,12.52
2023-01-23T08:48:25.949Z,12.48
2023-01-23T08:50:59.513Z,11.18
2023-01-23T08:53:26.019Z,14.00
2023-01-23T08:55:52.414Z,11.52
2023-01-23T08:58:18.728Z,10.95
2023-01-23T09:00:45.057Z,11.00
2023-01-23T09:03:11.645Z,10.25
2023-01-23T09:05:38.151Z,11.45
2023-01-23T09:08:04.960Z,10.25
2023-01-23T09:10:31.308Z,11.43
2023-01-23T09:12:57.831Z,11.40
2023-01-23T09:15:24.261Z,9.73
2023-01-23T09:17:50.694Z,9.93
2023-01-23T09:20:17.789Z,9.68
2023-01-23T09:22:44.844Z,8.57
2023-01-23T09:25:12.166Z,9.25
2023-01-23T09:27:38.448Z,8.98
2023-01-23T09:30:05.225Z,8.80
2023-01-23T09:32:31.561Z,8.90
2023-01-23T09:34:57.889Z,8.55
2023-01-23T09:37:25.260Z,9.23
2023-01-23T09:39:51.581Z,10.18
2023-01-23T09:42:26.116Z,10.00
2023-01-23T09:44:57.305Z,13.02
2023-01-23T09:50:00.325Z,17.17
2023-01-23T09:52:34.185Z,15.70
2023-01-23T09:55:17.555Z,13.15
2023-01-23T09:57:55.966Z,14.40
2023-01-23T10:00:25.251Z,17.48
2023-01-23T10:02:53.363Z,21.85
2023-01-23T10:05:26.509Z,14.95
2023-01-23T10:08:32.878Z,12.02
2023-01-23T10:11:10.763Z,17.85
2023-01-23T10:13:55.406Z,17.30
2023-01-23T10:16:50.046Z,22.83
2023-01-23T10:19:42.075Z,19.13
2023-01-23T10:24:53.162Z,12.77
2023-01-23T10:27:20.979Z,12.63
2023-01-23T10:29:52.634Z,10.10
2023-01-23T10:32:30.462Z,10.52
2023-01-23T10:35:03.742Z,9.05
2023-01-23T10:37:42.973Z,8.95
2023-01-23T10:40:42.758Z,9.95
2023-01-23T10:43:20.294Z,11.43
2023-01-23T10:45:48.014Z,12.27
2023-01-23T10:48:32.859Z,8.98
2023-01-23T10:51:00.156Z,10.65
2023-01-23T10:53:27.023Z,28.70
2023-01-23T10:55:57.897Z,13.75
2023-01-23T10:58:38.319Z,9.80
2023-01-23T11:01:07.087Z,9.10
2023-01-23T11:03:35.660Z,9.73
2023-01-23T11:06:03.919Z,11.35
2023-01-23T11:08:38.842Z,10.80
2023-01-23T11:11:22.676Z,10.57
2023-01-23T11:14:04.502Z,10.02
2023-01-23T11:16:30.991Z,10.10
2023-01-23T11:19:08.348Z,10.07
2023-01-23T11:21:37.924Z,10.88
2023-01-23T11:24:39.813Z,11.52
2023-01-23T11:27:19.115Z,10.70
2023-01-23T11:29:53.959Z,13.88
2023-01-23T11:32:21.559Z,9.68
2023-01-23T11:34:51.407Z,16.85
2023-01-23T11:37:37.282Z,20.08
2023-01-23T11:40:12.964Z,15.60
2023-01-23T11:42:41.798Z,13.07
2023-01-23T11:45:46.415Z,11.45
2023-01-23T11:48:18.824Z,10.07
2023-01-23T11:50:55.894Z,10.95
2023-01-23T11:53:42.443Z,10.30
2023-01-23T11:56:21.204Z,10.55
2023-01-23T11:59:05.829Z,11.52
2023-01-23T12:02:05.909Z,12.13
2023-01-23T12:07:24.833Z,12.25
2023-01-23T12:10:03.492Z,12.23
2023-01-23T12:13:02.172Z,12.88
2023-01-23T12:15:43.516Z,11.18
2023-01-23T12:18:27.495Z,12.40
2023-01-23T12:21:09.582Z,13.50
2023-01-23T12:24:04.473Z,12.60
2023-01-23T12:26:31.495Z,14.18
2023-01-23T12:29:03.729Z,17.27
2023-01-23T12:31:33.422Z,16.55
2023-01-23T12:34:13.001Z,15.57
2023-01-23T12:37:10.013Z,15.20
2023-01-23T12:39:59.986Z,13.30
2023-01-23T12:42:31.694Z,12.68
2023-01-23T12:45:06.193Z,11.45
2023-01-23T12:47:44.417Z,11.05
2023-01-23T12:50:27.085Z,11.75
2023-01-23T12:53:00.381Z,13.40
2023-01-23T12:55:35.901Z,12.90
2023-01-23T12:58:10.079Z,12.60
2023-01-23T13:00:57.954Z,13.77
2023-01-23T13:03:51.260Z,11.30
2023-01-23T13:06:42.737Z,13.73
2023-01-23T13:12:25.042Z,24.98
2023-01-23T13:15:13.484Z,19.67
2023-01-23T13:17:51.487Z,13.57
2023-01-23T13:20:39.987Z,12.55
2023-01-23T13:23:23.498Z,16.60
2023-01-23T13:25:50.797Z,14.15
2023-01-23T13:28:44.431Z,15.48
2023-01-23T13:31:44.931Z,12.88
2023-01-23T13:34:17.659Z,14.80
2023-01-23T13:36:51.584Z,15.60
2023-01-23T13:39:17.965Z,15.70
2023-01-23T13:41:52.555Z,16.95
2023-01-23T13:44:40.354Z,15.50
2023-01-23T14:22:13.132Z,15.17
2023-01-23T14:24:44.691Z,13.45
2023-01-23T14:27:51.281Z,14.73
2023-01-23T14:30:24.551Z,14.40
2023-01-23T14:32:51.034Z,14.20
2023-01-23T14:35:32.409Z,14.90
2023-01-23T14:40:37.273Z,46.58
2023-01-23T14:43:08.498Z,32.05
2023-01-23T14:45:36.388Z,40.90
2023-01-23T14:48:06.722Z,31.08
2023-01-23T14:50:33.876Z,22.17
2023-01-23T14:53:05.088Z,21.17
2023-01-23T14:58:03.685Z,15.77
2023-01-23T15:00:31.081Z,12.82
2023-01-23T15:02:57.459Z,13.90
2023-01-23T15:05:29.271Z,14.02
2023-01-23T15:08:06.031Z,14.52
2023-01-23T15:10:43.995Z,15.60
2023-01-23T15:13:26.493Z,13.85
2023-01-23T15:15:59.645Z,16.92
2023-01-23T15:18:28.645Z,15.50
2023-01-23T15:20:57.831Z,20.17
2023-01-23T15:23:30.972Z,19.20
2023-01-23T15:26:24.413Z,19.00
2023-01-23T15:28:56.622Z,18.55
2023-01-23T15:31:43.233Z,16.65
2023-01-23T15:34:15.631Z,18.35
2023-01-23T15:36:48.218Z,19.60
2023-01-23T15:39:27.257Z,17.88
2023-01-23T15:41:59.883Z,16.40
2023-01-23T15:44:29.254Z,16.20
2023-01-23T15:46:56.924Z,14.73
2023-01-23T15:49:26.266Z,13.98
2023-01-23T15:51:55.568Z,13.90
2023-01-23T15:54:26.589Z,13.77
2023-01-23T15:57:05.565Z,16.35
2023-01-23T15:59:33.902Z,16.23
2023-01-23T16:02:00.217Z,14.32
2023-01-23T16:04:26.538Z,16.98
2023-01-23T16:06:52.960Z,15.93
2023-01-23T16:09:33.375Z,14.45
2023-01-23T16:12:00.800Z,14.97
2023-01-23T16:14:27.202Z,13.23
2023-01-23T16:16:54.420Z,13.68
2023-01-23T16:19:21.016Z,14.55
2023-01-23T16:21:59.228Z,13.35
2023-01-23T16:24:36.448Z,14.40
2023-01-23T16:27:03.653Z,13.80
2023-01-23T16:29:32.726Z,14.30
2023-01-23T16:32:01.102Z,15.00
2023-01-23T16:34:27.596Z,14.05
2023-01-23T16:36:57.655Z,12.75
2023-01-23T16:39:26.983Z,13.07
2023-01-23T16:41:56.245Z,13.52
2023-01-23T16:44:26.452Z,12.98
2023-01-23T16:46:53.793Z,11.23
2023-01-23T16:49:20.888Z,11.63
2023-01-23T16:51:59.392Z,13.23
2023-01-23T16:54:26.266Z,13.25
2023-01-23T16:56:54.380Z,10.77
2023-01-23T16:59:34.650Z,10.57
2023-01-23T17:02:06.292Z,10.90
2023-01-23T17:04:32.657Z,10.93
2023-01-23T17:06:59.067Z,10.18
2023-01-23T17:09:25.427Z,19.13
2023-01-23T17:11:55.546Z,14.35
2023-01-23T17:14:30.684Z,12.25
2023-01-23T17:17:03.397Z,13.30
2023-01-23T17:19:33.437Z,13.90
2023-01-23T17:22:01.498Z,12.48
2023-01-23T17:24:28.373Z,11.85
2023-01-23T17:26:54.719Z,11.65
2023-01-23T17:29:21.473Z,13.30
2023-01-23T17:31:48.795Z,15.27
2023-01-23T17:34:24.073Z,13.93
2023-01-23T17:36:52.689Z,12.50
2023-01-23T17:39:20.527Z,12.20
2023-01-23T17:41:46.925Z,14.30
2023-01-23T17:44:13.255Z,12.82
2023-01-23T17:46:39.710Z,12.02
2023-01-23T17:49:35.229Z,12.32
2023-01-23T17:52:01.750Z,11.90
2023-01-23T17:54:28.601Z,13.82
2023-01-23T17:56:55.010Z,13.50
2023-01-23T17:59:21.467Z,12.15
2023-01-23T18:01:47.922Z,11.48
2023-01-23T18:04:17.211Z,13.68
2023-01-23T18:06:44.009Z,14.40
2023-01-23T18:09:10.553Z,17.08
2023-01-23T18:11:39.110Z,14.05
2023-01-23T18:14:23.447Z,18.17
2023-01-23T18:16:50.171Z,19.83
2023-01-23T18:19:17.844Z,18.25
2023-01-23T18:21:49.707Z,13.50
2023-01-23T18:24:24.164Z,12.48
2023-01-23T18:26:55.809Z,12.07
2023-01-23T18:29:33.730Z,13.20
2023-01-23T18:32:09.239Z,11.70
2023-01-23T18:34:58.839Z,14.43
2023-01-23T18:37:29.229Z,13.57
2023-01-23T18:40:36.189Z,13.32
2023-01-23T18:43:33.302Z,12.77
2023-01-23T18:45:59.859Z,13.95
2023-01-23T18:48:26.593Z,14.23
2023-01-23T18:51:06.000Z,14.88
2023-01-23T18:53:57.118Z,14.10
2023-01-23T18:57:01.016Z,12.77
2023-01-23T18:59:44.186Z,14.05
2023-01-23T19:02:35.757Z,13.07
2023-01-23T19:05:21.637Z,16.58
2023-01-23T19:07:49.073Z,15.73
2023-01-23T19:10:24.507Z,13.75
2023-01-23T19:12:53.872Z,14.05
2023-01-23T19:15:30.828Z,16.98
2023-01-23T19:18:06.321Z,12.65
2023-01-23T19:20:36.911Z,14.07
2023-01-23T19:23:35.490Z,14.98
2023-01-23T19:26:02.095Z,15.55
2023-01-23T19:28:28.648Z,14.70
2023-01-23T19:30:55.367Z,13.73
2023-01-23T19:33:22.028Z,13.45
2023-01-23T19:35:49.131Z,13.60
2023-01-23T19:38:15.439Z,13.13
2023-01-23T19:40:42.889Z,12.93
2023-01-23T19:43:16.778Z,12.57
2023-01-23T19:45:44.289Z,12.20
2023-01-23T19:48:10.922Z,17.52
2023-01-23T19:50:37.703Z,13.65
2023-01-23T19:53:04.278Z,15.48
2023-01-23T19:55:34.208Z,12.40
2023-01-23T19:58:00.737Z,12.32
2023-01-23T20:00:29.516Z,13.27
2023-01-23T20:02:55.997Z,12.80
2023-01-23T20:05:23.500Z,11.65
2023-01-23T20:07:50.561Z,11.25
2023-01-23T20:10:17.587Z,11.93
2023-01-23T20:12:46.494Z,10.88
2023-01-23T20:15:14.427Z,12.40
2023-01-23T20:17:41.382Z,14.00
2023-01-23T20:20:09.808Z,13.65
2023-01-23T20:22:36.206Z,13.90
2023-01-23T20:25:02.591Z,10.73
2023-01-23T20:27:28.915Z,11.85
2023-01-23T20:29:55.248Z,11.55
2023-01-23T20:32:21.677Z,11.27
2023-01-23T20:34:48.008Z,12.15
2023-01-23T20:37:14.390Z,12.65
2023-01-23T20:39:40.726Z,12.40
2023-01-23T20:42:08.834Z,11.32
2023-01-23T20:44:35.751Z,12.10
2023-01-23T20:47:02.081Z,11.32
2023-01-23T20:49:28.841Z,12.23
2023-01-23T20:52:15.246Z,12.30
2023-01-23T20:54:41.600Z,13.15
2023-01-23T20:57:07.904Z,17.77
2023-01-23T20:59:34.259Z,14.95
2023-01-23T21:02:19.068Z,12.15
2023-01-23T21:04:45.399Z,15.05
2023-01-23T21:07:11.749Z,16.17
2023-01-23T21:09:38.085Z,23.95
2023-01-23T21:12:04.640Z,13.48
2023-01-23T21:14:31.066Z,13.52
2023-01-23T21:16:58.249Z,13.95
2023-01-23T21:19:24.618Z,12.10
2023-01-23T21:21:51.014Z,14.07
2023-01-23T21:24:17.431Z,14.00
2023-01-23T21:26:43.960Z,14.57
2023-01-23T21:29:10.932Z,15.35
2023-01-23T21:31:39.266Z,16.00
2023-01-23T21:34:08.732Z,20.60
2023-01-23T21:36:35.727Z,18.40
2023-01-23T21:39:02.320Z,18.15
2023-01-23T21:41:28.682Z,18.95
2023-01-23T21:43:55.048Z,15.90
2023-01-23T21:46:21.479Z,14.55
2023-01-23T21:48:47.842Z,13.35
2023-01-23T21:51:21.913Z,12.45
2023-01-23T21:53:49.969Z,14.23
2023-01-23T21:56:19.467Z,14.07
2023-01-23T21:58:47.014Z,11.38
2023-01-23T22:01:42.075Z,11.27
2023-01-23T22:04:11.374Z,13.68
2023-01-23T22:06:39.796Z,12.82
2023-01-23T22:09:07.150Z,11.52
2023-01-23T22:11:33.545Z,13.00
2023-01-23T22:13:59.967Z,12.98
2023-01-23T22:16:46.453Z,13.10
2023-01-23T22:19:18.431Z,12.32
2023-01-23T22:21:46.180Z,13.27
2023-01-23T22:24:12.720Z,11.75
2023-01-23T22:26:39.097Z,11.52
2023-01-23T22:29:05.396Z,11.40
2023-01-23T22:31:31.825Z,11.90
2023-01-23T22:33:58.332Z,11.93
2023-01-23T22:36:24.788Z,11.60
2023-01-23T22:38:53.209Z,11.43
2023-01-23T22:41:20.176Z,11.02
2023-01-23T22:43:46.633Z,11.07
2023-01-23T22:46:16.368Z,10.88
2023-01-23T22:48:42.845Z,11.13
2023-01-23T22:51:19.158Z,12.38
2023-01-23T22:53:45.522Z,12.52
2023-01-23T22:56:12.755Z,11.88
2023-01-23T22:58:39.468Z,10.75
2023-01-23T23:01:06.693Z,10.57
2023-01-23T23:03:34.491Z,10.88
2023-01-23T23:06:04.135Z,10.95
2023-01-23T23:08:30.749Z,9.20
2023-01-23T23:11:04.505Z,8.90
2023-01-23T23:13:33.133Z,10.00
2023-01-23T23:16:08.869Z,10.25
2023-01-23T23:18:38.195Z,10.43
2023-01-23T23:21:08.275Z,9.87
2023-01-23T23:23:35.074Z,12.13
2023-01-23T23:26:02.073Z,10.63
2023-01-23T23:28:28.697Z,11.48
2023-01-23T23:30:54.985Z,11.02
2023-01-23T23:33:21.585Z,10.50
2023-01-23T23:35:48.080Z,11.13
2023-01-23T23:38:14.911Z,9.35
2023-01-23T23:40:41.661Z,15.57
2023-01-23T23:43:09.213Z,14.25
2023-01-23T23:45:35.587Z,13.82
2023-01-23T23:48:02.251Z,9.30
2023-01-23T23:50:29.292Z,9.68
2023-01-23T23:52:55.645Z,12.07
2023-01-23T23:55:22.393Z,12.38
2023-01-23T23:57:49.024Z,15.23
